Sign in

Advertise on goboko.com

You can reach many thousands of active pilots each month by advertising on goboko.com.

Please contact us for details.

Advertising

Info

Aviation weather - KJYO

METAR KJYO 021435Z AUTO 00000KT 7SM OVC017 18/17 A3016 RMK AO2

TAF KIAD 011137Z 0112/0218 VRB03KT 3SM -DZ BR BKN008 FM011500 06004KT P6SM SCT008 BKN020 FM011700 05004KT P6SM BKN045 FM012000 VRB03KT P6SM SCT150 FM020600 VRB03KT P6SM SCT020 BKN090

ADDS Experimental. Do not use for flight-related decisions.

Javascript required. Ce site nécessite javascript